createdAt,value
2023-10-23T00:02:54.373Z,100.00
2023-10-23T00:07:54.425Z,100.00
2023-10-23T00:12:55.346Z,100.00
2023-10-23T00:17:54.424Z,100.00
2023-10-23T00:22:54.805Z,100.00
2023-10-23T00:27:54.247Z,100.00
2023-10-23T00:32:54.283Z,100.00
2023-10-23T00:37:54.414Z,100.00
2023-10-23T00:42:54.240Z,100.00
2023-10-23T00:47:54.294Z,100.00
2023-10-23T00:52:54.792Z,100.00
2023-10-23T00:57:54.298Z,100.00
2023-10-23T01:02:54.339Z,100.00
2023-10-23T01:07:55.284Z,100.00
2023-10-23T01:12:54.356Z,100.00
2023-10-23T01:17:55.633Z,100.00
2023-10-23T01:22:57.087Z,100.00
2023-10-23T01:27:54.891Z,100.00
2023-10-23T01:32:54.270Z,100.00
2023-10-23T01:37:54.654Z,100.00
2023-10-23T01:42:54.537Z,100.00
2023-10-23T01:47:54.268Z,100.00
2023-10-23T01:52:54.520Z,100.00
2023-10-23T01:57:56.305Z,100.00
2023-10-23T02:02:54.759Z,100.00
2023-10-23T02:07:54.314Z,100.00
2023-10-23T02:12:54.398Z,100.00
2023-10-23T02:17:54.227Z,100.00
2023-10-23T02:22:54.292Z,100.00
2023-10-23T02:27:54.207Z,100.00
2023-10-23T02:32:54.339Z,100.00
2023-10-23T02:37:54.274Z,100.00
2023-10-23T02:42:54.200Z,100.00
2023-10-23T02:47:54.218Z,100.00
2023-10-23T02:52:54.450Z,100.00
2023-10-23T02:57:54.175Z,100.00
2023-10-23T03:02:54.175Z,100.00
2023-10-23T03:07:54.547Z,100.00
2023-10-23T03:12:54.153Z,100.00
2023-10-23T03:17:54.256Z,100.00
2023-10-23T03:22:54.196Z,100.00
2023-10-23T03:27:54.193Z,100.00
2023-10-23T03:32:54.370Z,100.00
2023-10-23T03:37:54.632Z,100.00
2023-10-23T03:42:54.188Z,100.00
2023-10-23T03:47:54.536Z,100.00
2023-10-23T03:52:54.222Z,100.00
2023-10-23T03:57:54.168Z,100.00
2023-10-23T04:02:54.106Z,100.00
2023-10-23T04:07:54.506Z,100.00
2023-10-23T04:12:54.091Z,100.00
2023-10-23T04:17:54.293Z,100.00
2023-10-23T04:22:54.215Z,100.00
2023-10-23T04:27:54.107Z,100.00
2023-10-23T04:32:54.098Z,100.00
2023-10-23T04:37:54.636Z,100.00
2023-10-23T04:42:54.131Z,100.00
2023-10-23T04:47:54.224Z,100.00
2023-10-23T04:52:54.191Z,100.00
2023-10-23T04:57:54.415Z,100.00
2023-10-23T05:02:54.817Z,100.00
2023-10-23T05:07:54.437Z,100.00
2023-10-23T05:12:54.217Z,100.00
2023-10-23T05:17:54.103Z,100.00
2023-10-23T05:22:54.289Z,100.00
2023-10-23T05:27:54.069Z,100.00
2023-10-23T05:32:54.091Z,100.00
2023-10-23T05:37:54.483Z,100.00
2023-10-23T05:42:54.023Z,100.00
2023-10-23T05:47:54.169Z,100.00
2023-10-23T05:52:54.115Z,100.00
2023-10-23T05:57:55.695Z,100.00
2023-10-23T06:02:54.251Z,100.00
2023-10-23T06:07:54.279Z,100.00
2023-10-23T06:12:54.005Z,100.00
2023-10-23T06:17:54.075Z,100.00
2023-10-23T06:22:54.158Z,100.00
2023-10-23T06:27:54.041Z,100.00
2023-10-23T06:32:54.050Z,100.00
2023-10-23T06:37:54.324Z,100.00
2023-10-23T06:42:54.095Z,100.00
2023-10-23T06:47:54.164Z,100.00
2023-10-23T06:52:54.065Z,100.00
2023-10-23T06:57:53.953Z,100.00
2023-10-23T07:02:53.979Z,100.00
2023-10-23T07:07:55.723Z,100.00
2023-10-23T07:12:55.058Z,100.00
2023-10-23T07:17:54.514Z,100.00
2023-10-23T07:22:54.313Z,100.00
2023-10-23T07:27:54.945Z,100.00
2023-10-23T07:32:53.993Z,100.00
2023-10-23T07:37:54.652Z,100.00
2023-10-23T07:42:53.988Z,100.00
2023-10-23T07:47:54.010Z,100.00
2023-10-23T07:52:54.284Z,100.00
2023-10-23T07:57:54.010Z,100.00
2023-10-23T08:02:54.008Z,100.00
2023-10-23T08:07:54.365Z,100.00
2023-10-23T08:12:53.945Z,100.00
2023-10-23T08:17:54.121Z,100.00
2023-10-23T08:22:54.350Z,100.00
2023-10-23T08:27:53.864Z,100.00
2023-10-23T08:32:54.381Z,95.08
2023-10-23T08:37:54.857Z,94.81
2023-10-23T08:42:53.955Z,94.51
2023-10-23T08:47:54.199Z,95.74
2023-10-23T08:52:57.836Z,94.03
2023-10-23T08:57:54.961Z,88.93
2023-10-23T09:02:54.888Z,85.23
2023-10-23T09:07:54.556Z,86.77
2023-10-23T09:12:55.525Z,86.32
2023-10-23T09:17:53.875Z,86.16
2023-10-23T09:22:55.877Z,86.44
2023-10-23T09:27:53.862Z,85.41
2023-10-23T09:32:55.367Z,85.26
2023-10-23T09:37:55.576Z,84.17
2023-10-23T09:42:59.014Z,84.16
2023-10-23T09:47:58.873Z,83.10
2023-10-23T09:52:57.051Z,84.52
2023-10-23T09:57:55.679Z,83.97
2023-10-23T10:02:55.874Z,85.50
2023-10-23T10:08:02.726Z,86.62
2023-10-23T10:12:55.429Z,86.69
2023-10-23T10:17:54.085Z,88.55
2023-10-23T10:23:01.414Z,89.14
2023-10-23T10:27:55.404Z,89.67
2023-10-23T10:34:26.407Z,89.86
2023-10-23T10:37:59.152Z,89.90
2023-10-23T10:42:55.440Z,89.94
2023-10-23T10:47:54.124Z,90.27
2023-10-23T10:52:59.724Z,90.90
2023-10-23T10:57:54.841Z,91.40
2023-10-23T11:02:56.689Z,91.13
2023-10-23T11:07:54.734Z,91.49
2023-10-23T11:12:53.994Z,90.60
2023-10-23T11:17:54.191Z,89.95
2023-10-23T11:22:54.727Z,89.84
2023-10-23T11:27:54.977Z,89.95
2023-10-23T11:32:53.998Z,89.43
2023-10-23T11:37:55.602Z,89.21
2023-10-23T11:42:55.143Z,88.92
2023-10-23T11:47:53.865Z,89.25
2023-10-23T11:52:54.113Z,89.85
2023-10-23T11:57:54.672Z,89.90
2023-10-23T12:02:54.182Z,89.40
2023-10-23T12:07:55.712Z,89.98
2023-10-23T12:12:55.153Z,90.24
2023-10-23T12:17:53.830Z,89.79
2023-10-23T12:22:53.866Z,89.13
2023-10-23T12:27:53.785Z,89.13
2023-10-23T12:33:15.012Z,89.67
2023-10-23T12:37:53.929Z,88.86
2023-10-23T12:42:53.809Z,88.47
2023-10-23T12:47:53.868Z,88.45
2023-10-23T12:52:54.149Z,87.71
2023-10-23T12:57:53.744Z,86.99
2023-10-23T13:02:53.947Z,86.34
2023-10-23T13:07:54.055Z,85.56
2023-10-23T13:12:53.750Z,85.16
2023-10-23T13:17:56.090Z,85.41
2023-10-23T13:22:53.889Z,85.94
2023-10-23T13:27:53.811Z,85.65
2023-10-23T13:32:53.797Z,86.43
2023-10-23T13:37:53.986Z,86.69
2023-10-23T13:42:53.750Z,86.41
2023-10-23T13:52:53.745Z,86.71
2023-10-23T13:57:55.365Z,87.18
2023-10-23T14:02:53.752Z,87.81
2023-10-23T14:07:53.851Z,88.95
2023-10-23T14:12:53.805Z,89.73
2023-10-23T14:17:53.933Z,90.52
2023-10-23T14:22:54.113Z,91.28
2023-10-23T14:27:54.250Z,91.55
2023-10-23T14:32:53.681Z,92.37
2023-10-23T14:37:54.931Z,92.91
2023-10-23T14:42:54.755Z,93.18
2023-10-23T14:47:53.802Z,93.44
2023-10-23T14:52:53.828Z,93.91
2023-10-23T14:57:53.709Z,94.41
2023-10-23T15:02:53.698Z,95.13
2023-10-23T15:07:53.927Z,96.33
2023-10-23T15:12:53.806Z,96.78
2023-10-23T15:21:48.626Z,97.39
2023-10-23T15:22:53.612Z,98.13
2023-10-23T15:27:53.689Z,99.25
2023-10-23T15:32:53.849Z,99.90
2023-10-23T15:37:54.369Z,100.00
2023-10-23T15:42:53.717Z,100.00
2023-10-23T15:47:59.493Z,100.00
2023-10-23T15:52:53.665Z,100.00
2023-10-23T15:57:53.870Z,100.00
2023-10-23T16:02:54.001Z,100.00
2023-10-23T16:07:53.711Z,100.00
2023-10-23T16:12:53.690Z,100.00
2023-10-23T16:17:55.089Z,100.00
2023-10-23T16:22:53.868Z,100.00
2023-10-23T16:27:54.908Z,100.00
2023-10-23T16:32:54.596Z,100.00
2023-10-23T16:37:53.622Z,100.00
2023-10-23T16:49:13.002Z,100.00
2023-10-23T16:52:53.566Z,100.00
2023-10-23T16:57:53.867Z,100.00
2023-10-23T17:02:54.323Z,100.00
2023-10-23T17:07:54.258Z,100.00
2023-10-23T17:17:43.062Z,100.00
2023-10-23T17:17:53.562Z,100.00
2023-10-23T17:22:53.657Z,100.00
2023-10-23T17:27:54.281Z,100.00
2023-10-23T17:32:53.633Z,100.00
2023-10-23T17:37:53.654Z,100.00
2023-10-23T17:42:53.737Z,100.00
2023-10-23T17:47:53.757Z,100.00
2023-10-23T17:52:53.569Z,100.00
2023-10-23T17:57:54.172Z,100.00
2023-10-23T18:02:53.765Z,100.00
2023-10-23T18:07:55.600Z,100.00
2023-10-23T18:12:53.813Z,100.00
2023-10-23T18:17:53.801Z,100.00
2023-10-23T18:22:56.902Z,100.00
2023-10-23T18:27:53.615Z,100.00
2023-10-23T18:32:53.584Z,100.00
2023-10-23T18:37:54.059Z,100.00
2023-10-23T18:42:56.193Z,100.00
2023-10-23T18:48:15.737Z,100.00
2023-10-23T18:52:54.297Z,100.00
2023-10-23T18:57:53.753Z,100.00
2023-10-23T19:02:53.628Z,100.00
2023-10-23T19:07:53.472Z,100.00
2023-10-23T19:12:53.685Z,100.00
2023-10-23T19:17:53.850Z,100.00
2023-10-23T19:22:58.928Z,100.00
2023-10-23T19:27:53.480Z,100.00
2023-10-23T19:32:56.193Z,100.00
2023-10-23T19:37:54.047Z,100.00
2023-10-23T19:42:57.325Z,100.00
2023-10-23T19:47:54.261Z,100.00
2023-10-23T19:52:54.527Z,100.00
2023-10-23T19:57:53.952Z,100.00
2023-10-23T20:02:54.691Z,100.00
2023-10-23T20:07:54.180Z,100.00
2023-10-23T20:12:53.576Z,100.00
2023-10-23T20:17:54.852Z,100.00
2023-10-23T20:22:53.709Z,100.00
2023-10-23T20:27:53.512Z,100.00
2023-10-23T20:32:53.786Z,100.00
2023-10-23T20:37:53.779Z,100.00
2023-10-23T20:42:53.491Z,100.00
2023-10-23T20:47:53.507Z,100.00
2023-10-23T20:52:53.623Z,100.00
2023-10-23T20:57:53.357Z,100.00
2023-10-23T21:02:53.501Z,100.00
2023-10-23T21:07:53.672Z,100.00
2023-10-23T21:12:53.466Z,100.00
2023-10-23T21:17:53.477Z,100.00
2023-10-23T21:22:53.747Z,100.00
2023-10-23T21:27:54.754Z,100.00
2023-10-23T21:32:53.335Z,100.00
2023-10-23T21:37:53.760Z,100.00
2023-10-23T21:42:53.414Z,100.00
2023-10-23T21:47:53.635Z,100.00
2023-10-23T21:52:53.987Z,100.00
2023-10-23T21:57:53.630Z,100.00
2023-10-23T22:02:54.438Z,100.00
2023-10-23T22:07:54.864Z,100.00
2023-10-23T22:12:54.814Z,100.00
2023-10-23T22:17:53.479Z,100.00
2023-10-23T22:22:53.405Z,100.00
2023-10-23T22:27:53.463Z,100.00
2023-10-23T22:33:07.957Z,100.00
2023-10-23T22:38:06.024Z,100.00
2023-10-23T22:42:53.327Z,100.00
2023-10-23T22:47:53.684Z,100.00
2023-10-23T22:52:53.894Z,100.00
2023-10-23T22:57:53.685Z,100.00
2023-10-23T23:02:53.692Z,100.00
2023-10-23T23:07:57.255Z,100.00
2023-10-23T23:12:54.800Z,100.00
2023-10-23T23:17:53.769Z,100.00
2023-10-23T23:22:53.879Z,100.00
2023-10-23T23:27:53.384Z,100.00
2023-10-23T23:32:53.344Z,100.00
2023-10-23T23:37:53.534Z,100.00
2023-10-23T23:42:54.918Z,100.00
2023-10-23T23:47:53.280Z,100.00
2023-10-23T23:52:53.588Z,100.00
2023-10-23T23:57:53.567Z,100.00
